createdAt,value
2023-05-09T00:01:31.727Z,81.76
2023-05-09T00:03:59.787Z,81.62
2023-05-09T00:06:27.843Z,81.83
2023-05-09T00:08:56.037Z,81.70
2023-05-09T00:11:23.828Z,81.91
2023-05-09T00:13:52.106Z,82.16
2023-05-09T00:16:20.700Z,82.23
2023-05-09T00:18:48.408Z,82.27
2023-05-09T00:21:15.674Z,82.57
2023-05-09T00:23:43.292Z,82.78
2023-05-09T00:26:10.974Z,82.92
2023-05-09T00:28:41.093Z,83.00
2023-05-09T00:31:08.094Z,83.15
2023-05-09T00:33:35.809Z,83.33
2023-05-09T00:36:02.733Z,83.40
2023-05-09T00:38:30.193Z,83.74
2023-05-09T00:40:57.359Z,83.74
2023-05-09T00:43:24.808Z,84.20
2023-05-09T00:45:51.941Z,84.21
2023-05-09T00:48:19.702Z,84.48
2023-05-09T00:50:49.070Z,84.73
2023-05-09T00:53:16.275Z,84.97
2023-05-09T00:55:43.467Z,85.13
2023-05-09T00:58:11.403Z,85.56
2023-05-09T01:00:38.320Z,86.03
2023-05-09T01:03:06.408Z,86.03
2023-05-09T01:05:44.187Z,85.85
2023-05-09T01:08:41.820Z,86.12
2023-05-09T01:11:13.501Z,86.09
2023-05-09T01:13:49.884Z,86.17
2023-05-09T01:16:27.946Z,86.40
2023-05-09T01:19:20.483Z,86.12
2023-05-09T01:21:48.452Z,86.03
2023-05-09T01:24:40.429Z,85.71
2023-05-09T01:27:21.464Z,85.52
2023-05-09T01:29:54.962Z,85.14
2023-05-09T01:32:28.090Z,84.35
2023-05-09T01:34:59.521Z,83.88
2023-05-09T01:37:31.679Z,83.52
2023-05-09T01:40:06.874Z,83.65
2023-05-09T01:42:41.835Z,83.15
2023-05-09T01:45:11.272Z,83.29
2023-05-09T01:47:40.766Z,83.13
2023-05-09T01:50:10.985Z,83.31
2023-05-09T01:52:40.196Z,83.13
2023-05-09T01:55:08.865Z,83.25
2023-05-09T01:57:36.718Z,82.99
2023-05-09T02:00:08.021Z,83.16
2023-05-09T02:02:40.542Z,83.17
2023-05-09T02:05:10.696Z,82.90
2023-05-09T02:07:39.585Z,83.09
2023-05-09T02:10:09.214Z,82.94
2023-05-09T02:12:38.306Z,83.04
2023-05-09T02:15:06.845Z,83.66
2023-05-09T02:17:35.065Z,83.93
2023-05-09T02:20:02.251Z,83.97
2023-05-09T02:22:29.260Z,83.89
2023-05-09T02:24:57.050Z,84.11
2023-05-09T02:27:24.873Z,84.09
2023-05-09T02:29:57.580Z,84.29
2023-05-09T02:32:29.338Z,83.92
2023-05-09T02:34:59.057Z,84.09
2023-05-09T02:37:27.009Z,84.20
2023-05-09T02:39:55.337Z,84.04
2023-05-09T02:42:25.554Z,84.26
2023-05-09T02:44:53.918Z,84.21
2023-05-09T02:47:22.284Z,84.13
2023-05-09T02:49:49.862Z,83.89
2023-05-09T02:52:17.157Z,83.97
2023-05-09T02:54:45.009Z,83.75
2023-05-09T02:57:12.725Z,84.18
2023-05-09T02:59:39.871Z,84.42
2023-05-09T03:02:07.161Z,84.31
2023-05-09T03:04:34.435Z,84.97
2023-05-09T03:07:02.083Z,84.52
2023-05-09T03:09:32.662Z,84.82
2023-05-09T03:12:00.970Z,84.68
2023-05-09T03:14:28.325Z,84.79
2023-05-09T03:16:55.471Z,84.79
2023-05-09T03:19:28.727Z,84.93
2023-05-09T03:21:56.131Z,85.04
2023-05-09T03:24:26.728Z,85.01
2023-05-09T03:26:54.482Z,85.59
2023-05-09T03:29:22.617Z,85.48
2023-05-09T03:31:49.590Z,85.10
2023-05-09T03:34:17.366Z,85.04
2023-05-09T03:36:44.928Z,85.40
2023-05-09T03:39:14.552Z,84.95
2023-05-09T03:41:44.713Z,84.80
2023-05-09T03:44:12.528Z,84.62
2023-05-09T03:46:40.039Z,84.32
2023-05-09T03:49:07.460Z,83.77
2023-05-09T03:51:35.785Z,83.46
2023-05-09T03:54:05.810Z,83.22
2023-05-09T03:56:33.305Z,82.63
2023-05-09T03:59:01.132Z,82.54
2023-05-09T04:01:29.155Z,82.16
2023-05-09T04:03:58.460Z,81.53
2023-05-09T04:06:27.113Z,80.90
2023-05-09T04:08:54.547Z,79.28
2023-05-09T04:11:21.815Z,79.67
2023-05-09T04:13:49.913Z,78.48
2023-05-09T04:16:30.887Z,75.90
2023-05-09T04:18:58.901Z,74.44
2023-05-09T04:21:26.376Z,75.05
2023-05-09T04:23:56.727Z,75.27
2023-05-09T04:26:31.670Z,74.75
2023-05-09T04:29:00.440Z,74.80
2023-05-09T04:31:29.294Z,75.16
2023-05-09T04:33:58.536Z,74.20
2023-05-09T04:36:27.799Z,73.53
2023-05-09T04:38:57.688Z,72.47
2023-05-09T04:41:27.748Z,70.95
2023-05-09T04:43:54.898Z,69.25
2023-05-09T04:46:25.715Z,67.28
2023-05-09T04:48:53.880Z,66.43
2023-05-09T04:51:21.518Z,64.07
2023-05-09T04:53:48.628Z,63.80
2023-05-09T04:56:19.088Z,61.33
2023-05-09T04:58:47.569Z,60.59
2023-05-09T05:01:16.946Z,61.26
2023-05-09T05:03:44.755Z,61.25
2023-05-09T05:06:12.827Z,61.68
2023-05-09T05:08:42.156Z,56.89
2023-05-09T05:11:10.200Z,56.63
2023-05-09T05:13:37.307Z,57.62
2023-05-09T05:16:05.403Z,57.35
2023-05-09T05:18:33.072Z,56.67
2023-05-09T05:21:00.717Z,57.19
2023-05-09T05:23:27.755Z,57.58
2023-05-09T05:25:56.182Z,57.04
2023-05-09T05:28:23.663Z,56.19
2023-05-09T05:30:51.607Z,55.65
2023-05-09T05:33:18.923Z,55.21
2023-05-09T05:35:46.771Z,54.77
2023-05-09T05:38:13.986Z,55.45
2023-05-09T05:40:41.897Z,53.64
2023-05-09T05:43:08.960Z,52.88
2023-05-09T05:45:38.608Z,52.93
2023-05-09T05:48:08.396Z,52.60
2023-05-09T05:50:36.816Z,52.98
2023-05-09T05:53:05.286Z,52.51
2023-05-09T05:55:33.620Z,52.55
2023-05-09T05:58:01.580Z,51.33
2023-05-09T06:00:30.002Z,50.99
2023-05-09T06:03:04.030Z,50.29
2023-05-09T06:05:55.991Z,49.54
2023-05-09T06:08:23.140Z,49.62
2023-05-09T06:10:51.007Z,48.50
2023-05-09T06:13:18.349Z,48.54
2023-05-09T06:15:51.089Z,48.04
2023-05-09T06:18:18.505Z,48.32
2023-05-09T06:20:46.285Z,48.41
2023-05-09T06:23:14.221Z,48.51
2023-05-09T06:25:41.650Z,48.42
2023-05-09T06:28:09.602Z,49.08
2023-05-09T06:30:36.750Z,49.08
2023-05-09T06:33:03.812Z,48.29
2023-05-09T06:35:31.057Z,47.31
2023-05-09T06:37:57.994Z,45.75
2023-05-09T06:40:25.074Z,45.12
2023-05-09T06:42:52.322Z,43.72
2023-05-09T06:45:20.688Z,43.77
2023-05-09T06:47:48.151Z,43.34
2023-05-09T06:50:15.319Z,43.37
2023-05-09T06:52:42.548Z,43.71
2023-05-09T06:55:10.540Z,42.77
2023-05-09T06:57:40.170Z,41.53
2023-05-09T07:00:08.107Z,40.49
2023-05-09T07:02:35.509Z,41.11
2023-05-09T07:05:03.567Z,41.34
2023-05-09T07:07:30.859Z,40.76
2023-05-09T07:10:10.601Z,39.48
2023-05-09T07:12:39.701Z,39.72
2023-05-09T07:15:08.236Z,38.83
2023-05-09T07:17:35.762Z,37.37
2023-05-09T07:20:04.922Z,36.35
2023-05-09T07:22:34.110Z,36.41
2023-05-09T07:25:03.499Z,36.58
2023-05-09T07:27:31.242Z,35.92
2023-05-09T07:29:58.573Z,36.20
2023-05-09T07:32:28.783Z,35.54
2023-05-09T07:34:56.503Z,35.09
2023-05-09T07:37:23.672Z,35.47
2023-05-09T07:39:51.961Z,35.50
2023-05-09T07:42:18.983Z,34.29
2023-05-09T07:44:46.650Z,34.69
2023-05-09T07:47:14.152Z,33.88
2023-05-09T07:49:43.411Z,34.19
2023-05-09T07:52:10.698Z,34.83
2023-05-09T07:54:37.778Z,33.82
2023-05-09T07:57:05.276Z,34.25
2023-05-09T07:59:32.727Z,34.16
2023-05-09T08:01:59.672Z,34.66
2023-05-09T08:04:27.160Z,34.86
2023-05-09T08:06:54.287Z,32.85
2023-05-09T08:09:22.070Z,31.79
2023-05-09T08:11:49.288Z,31.94
2023-05-09T08:14:16.719Z,32.37
2023-05-09T08:16:43.615Z,31.67
2023-05-09T08:19:11.071Z,32.78
2023-05-09T08:21:37.957Z,32.98
2023-05-09T08:24:08.110Z,33.39
2023-05-09T08:26:35.812Z,32.82
2023-05-09T08:29:04.560Z,32.68
2023-05-09T08:31:31.638Z,33.19
2023-05-09T08:33:58.745Z,32.99
2023-05-09T08:36:25.706Z,31.81
2023-05-09T08:38:53.699Z,31.71
2023-05-09T08:41:28.059Z,32.10
2023-05-09T08:43:56.116Z,32.46
2023-05-09T08:46:28.661Z,32.38
2023-05-09T08:48:57.335Z,32.04
2023-05-09T08:51:24.866Z,31.89
2023-05-09T08:53:52.661Z,31.35
2023-05-09T08:56:20.099Z,31.10
2023-05-09T08:58:47.427Z,31.46
2023-05-09T09:01:14.425Z,32.02
2023-05-09T09:03:47.651Z,31.71
2023-05-09T09:06:16.890Z,30.99
2023-05-09T09:08:46.012Z,31.25
2023-05-09T09:11:17.545Z,31.25
2023-05-09T09:13:46.831Z,31.01
2023-05-09T09:16:21.133Z,31.60
2023-05-09T09:18:51.808Z,31.35
2023-05-09T09:21:20.426Z,31.03
2023-05-09T09:23:49.942Z,31.97
2023-05-09T09:26:17.136Z,30.72
2023-05-09T09:28:44.397Z,30.38
2023-05-09T09:31:25.225Z,30.64
2023-05-09T09:33:52.653Z,30.43
2023-05-09T09:36:30.527Z,29.86
2023-05-09T09:39:02.432Z,30.00
2023-05-09T09:41:37.171Z,30.49
2023-05-09T09:44:12.915Z,31.93
2023-05-09T09:46:55.329Z,31.65
2023-05-09T09:49:25.489Z,31.03
2023-05-09T09:51:58.367Z,30.97
2023-05-09T09:54:27.659Z,31.09
2023-05-09T09:56:55.184Z,31.44
2023-05-09T09:59:25.770Z,30.62
2023-05-09T10:02:07.525Z,31.38
2023-05-09T10:04:39.158Z,30.62
2023-05-09T10:07:08.986Z,30.46
2023-05-09T10:09:38.207Z,30.69
2023-05-09T10:12:07.479Z,30.69
2023-05-09T10:14:36.583Z,31.09
2023-05-09T10:17:05.532Z,30.86
2023-05-09T10:19:33.531Z,30.00
2023-05-09T10:22:08.298Z,30.05
2023-05-09T10:24:48.410Z,29.79
2023-05-09T10:27:21.759Z,29.84
2023-05-09T10:29:56.281Z,30.13
2023-05-09T10:32:52.701Z,30.09
2023-05-09T10:35:26.577Z,31.17
2023-05-09T10:37:59.110Z,30.94
2023-05-09T10:40:28.014Z,31.29
2023-05-09T10:42:55.132Z,31.02
2023-05-09T10:45:23.261Z,30.67
2023-05-09T10:47:53.341Z,31.42
2023-05-09T10:50:21.529Z,31.22
2023-05-09T10:53:04.081Z,30.86
2023-05-09T10:56:00.678Z,30.37
2023-05-09T10:58:30.088Z,31.12
2023-05-09T11:01:00.633Z,30.71
2023-05-09T11:03:29.671Z,30.62
2023-05-09T11:05:58.441Z,30.73
2023-05-09T11:08:30.318Z,31.00
2023-05-09T11:11:03.881Z,31.64
2023-05-09T11:13:32.635Z,30.94
2023-05-09T11:15:59.761Z,30.22
2023-05-09T11:18:26.679Z,30.45
2023-05-09T11:20:54.369Z,31.00
2023-05-09T11:23:26.088Z,30.71
2023-05-09T11:25:54.264Z,30.37
2023-05-09T11:28:32.854Z,30.36
2023-05-09T11:31:16.800Z,30.47
2023-05-09T11:33:47.154Z,30.42
2023-05-09T11:36:20.581Z,30.66
2023-05-09T11:38:48.042Z,30.73
2023-05-09T11:41:16.001Z,30.12
2023-05-09T11:43:45.017Z,30.91
2023-05-09T11:46:12.965Z,30.04
2023-05-09T11:48:42.110Z,29.73
2023-05-09T11:51:17.127Z,30.51
2023-05-09T11:53:50.669Z,30.40
2023-05-09T11:56:18.087Z,29.89
2023-05-09T11:58:46.858Z,30.31
2023-05-09T12:01:14.626Z,30.34
2023-05-09T12:03:45.465Z,30.50
2023-05-09T12:06:20.011Z,29.83
2023-05-09T12:08:47.691Z,30.06
2023-05-09T12:11:15.428Z,30.36
2023-05-09T12:13:50.179Z,30.03
2023-05-09T12:16:19.003Z,31.36
2023-05-09T12:18:54.995Z,30.76
2023-05-09T12:21:23.555Z,31.31
2023-05-09T12:23:52.559Z,29.89
2023-05-09T12:26:22.271Z,29.16
2023-05-09T12:28:50.008Z,29.74
2023-05-09T12:31:18.932Z,29.75
2023-05-09T12:33:46.996Z,29.70
2023-05-09T12:36:15.952Z,29.86
2023-05-09T12:38:54.009Z,29.94
2023-05-09T12:41:37.065Z,29.90
2023-05-09T12:44:07.989Z,29.88
2023-05-09T12:46:37.532Z,29.97
2023-05-09T12:49:05.477Z,29.65
2023-05-09T12:51:33.092Z,29.99
2023-05-09T12:54:05.125Z,30.21
2023-05-09T12:56:35.331Z,30.25
2023-05-09T12:59:02.740Z,29.50
2023-05-09T13:01:30.988Z,29.65
2023-05-09T13:04:03.743Z,29.51
2023-05-09T13:06:31.831Z,29.75
2023-05-09T13:09:06.023Z,29.03
2023-05-09T13:11:33.811Z,29.04
2023-05-09T13:14:02.381Z,29.24
2023-05-09T13:16:29.894Z,29.30
2023-05-09T13:18:56.981Z,28.92
2023-05-09T13:21:24.472Z,28.41
2023-05-09T13:23:52.112Z,28.85
2023-05-09T13:26:19.685Z,29.05
2023-05-09T13:28:46.731Z,29.00
2023-05-09T13:31:15.148Z,29.28
2023-05-09T13:33:42.947Z,29.33
2023-05-09T13:36:10.590Z,29.56
2023-05-09T13:38:40.947Z,29.27
2023-05-09T13:41:08.701Z,29.47
2023-05-09T13:43:36.742Z,29.51
2023-05-09T13:46:04.611Z,29.33
2023-05-09T13:48:31.752Z,29.22
2023-05-09T13:51:00.398Z,28.89
2023-05-09T13:53:27.684Z,29.03
2023-05-09T13:55:55.436Z,29.33
2023-05-09T13:58:22.809Z,29.35
2023-05-09T14:00:50.412Z,29.08
2023-05-09T14:03:17.374Z,29.38
2023-05-09T14:05:45.022Z,30.15
2023-05-09T14:08:12.226Z,29.35
2023-05-09T14:10:40.035Z,28.71
2023-05-09T14:13:08.523Z,29.04
2023-05-09T14:15:36.092Z,29.33
2023-05-09T14:18:03.166Z,29.36
2023-05-09T14:20:30.947Z,30.30
2023-05-09T14:23:00.719Z,29.34
2023-05-09T14:25:28.658Z,30.35
2023-05-09T14:27:55.520Z,30.14
2023-05-09T14:30:23.403Z,29.59
2023-05-09T14:32:50.941Z,29.00
2023-05-09T14:35:18.713Z,29.51
2023-05-09T14:37:46.025Z,29.74
2023-05-09T14:40:13.444Z,29.77
2023-05-09T14:42:41.502Z,29.31
2023-05-09T14:45:12.134Z,29.80
2023-05-09T14:47:41.184Z,29.68
2023-05-09T14:50:11.646Z,29.63
2023-05-09T14:52:38.782Z,29.48
2023-05-09T14:55:07.442Z,29.01
2023-05-09T14:57:34.951Z,28.39
2023-05-09T15:00:16.717Z,26.43
2023-05-09T15:02:48.413Z,24.67
2023-05-09T15:05:16.861Z,24.44
2023-05-09T15:07:44.150Z,23.46
2023-05-09T15:10:11.464Z,22.80
2023-05-09T15:12:38.374Z,22.17
2023-05-09T15:15:16.813Z,22.00
2023-05-09T15:17:45.418Z,22.49
2023-05-09T15:20:15.661Z,22.62
2023-05-09T15:22:44.130Z,22.37
2023-05-09T15:25:11.771Z,23.32
2023-05-09T15:27:39.561Z,23.56
2023-05-09T15:30:08.286Z,23.59
2023-05-09T15:32:38.118Z,22.81
2023-05-09T15:35:07.001Z,22.74
2023-05-09T15:37:35.859Z,23.71
2023-05-09T15:40:03.665Z,23.98
2023-05-09T15:42:31.234Z,24.03
2023-05-09T15:44:58.474Z,24.19
2023-05-09T15:47:26.337Z,23.85
2023-05-09T15:50:00.010Z,24.60
2023-05-09T15:52:28.644Z,24.96
2023-05-09T15:54:58.579Z,25.94
2023-05-09T15:57:27.439Z,26.83
2023-05-09T15:59:56.318Z,27.67
2023-05-09T16:02:25.738Z,27.80
2023-05-09T16:04:59.005Z,27.85
2023-05-09T16:07:27.728Z,27.49
2023-05-09T16:09:56.413Z,27.02
2023-05-09T16:12:25.760Z,26.42
2023-05-09T16:14:53.337Z,26.65
2023-05-09T16:17:20.288Z,27.00
2023-05-09T16:19:47.397Z,27.07
2023-05-09T16:22:14.847Z,26.95
2023-05-09T16:24:42.044Z,26.15
2023-05-09T16:27:09.496Z,25.83
2023-05-09T16:29:36.915Z,25.62
2023-05-09T16:32:04.121Z,25.54
2023-05-09T16:34:32.034Z,25.43
2023-05-09T16:36:59.179Z,25.58
2023-05-09T16:39:28.079Z,25.84
2023-05-09T16:41:55.638Z,25.65
2023-05-09T16:44:25.910Z,25.16
2023-05-09T16:46:53.180Z,25.80
2023-05-09T16:49:21.116Z,26.25
2023-05-09T16:51:48.386Z,25.85
2023-05-09T16:54:16.105Z,26.01
2023-05-09T16:56:43.390Z,26.23
2023-05-09T16:59:10.949Z,26.42
2023-05-09T17:01:38.047Z,26.48
2023-05-09T17:04:07.005Z,27.47
2023-05-09T17:06:36.853Z,28.21
2023-05-09T17:09:05.521Z,28.82
2023-05-09T17:11:33.552Z,29.71
2023-05-09T17:14:02.939Z,29.68
2023-05-09T17:16:30.030Z,29.89
2023-05-09T17:18:57.768Z,30.56
2023-05-09T17:21:25.228Z,30.42
2023-05-09T17:23:54.131Z,31.03
2023-05-09T17:26:21.721Z,31.53
2023-05-09T17:28:49.749Z,31.68
2023-05-09T17:31:16.928Z,32.27
2023-05-09T17:33:44.434Z,32.39
2023-05-09T17:36:11.271Z,32.61
2023-05-09T17:38:38.674Z,32.97
2023-05-09T17:41:05.885Z,32.96
2023-05-09T17:43:33.138Z,33.43
2023-05-09T17:46:01.334Z,33.52
2023-05-09T17:48:29.272Z,33.67
2023-05-09T17:50:56.564Z,34.19
2023-05-09T17:53:24.123Z,33.99
2023-05-09T17:55:51.583Z,34.08
2023-05-09T17:58:19.986Z,34.61
2023-05-09T18:00:47.134Z,34.88
2023-05-09T18:03:14.629Z,34.96
2023-05-09T18:05:41.923Z,35.07
2023-05-09T18:08:09.046Z,35.82
2023-05-09T18:10:36.193Z,35.66
2023-05-09T18:13:03.629Z,35.87
2023-05-09T18:15:31.138Z,36.29
2023-05-09T18:17:59.199Z,36.38
2023-05-09T18:20:26.473Z,36.84
2023-05-09T18:22:54.434Z,36.61
2023-05-09T18:25:21.686Z,37.22
2023-05-09T18:27:49.095Z,36.79
2023-05-09T18:30:16.687Z,36.92
2023-05-09T18:32:44.233Z,37.42
2023-05-09T18:35:12.781Z,37.52
2023-05-09T18:37:40.391Z,37.63
2023-05-09T18:40:10.664Z,37.80
2023-05-09T18:42:38.313Z,37.89
2023-05-09T18:45:05.952Z,38.15
2023-05-09T18:47:33.523Z,38.20
2023-05-09T18:50:12.429Z,38.27
2023-05-09T18:52:40.603Z,38.63
2023-05-09T18:55:07.980Z,38.79
2023-05-09T18:57:35.564Z,39.10
2023-05-09T19:00:03.609Z,39.04
2023-05-09T19:02:31.284Z,39.11
2023-05-09T19:04:58.300Z,39.62
2023-05-09T19:07:26.461Z,39.81
2023-05-09T19:09:53.303Z,40.03
2023-05-09T19:12:21.057Z,40.16
2023-05-09T19:14:48.204Z,40.32
2023-05-09T19:17:15.719Z,40.53
2023-05-09T19:19:42.862Z,40.70
2023-05-09T19:22:10.457Z,41.18
2023-05-09T19:24:37.768Z,41.58
2023-05-09T19:27:06.798Z,41.97
2023-05-09T19:29:34.626Z,42.24
2023-05-09T19:32:02.056Z,42.61
2023-05-09T19:34:30.420Z,42.89
2023-05-09T19:36:57.675Z,43.11
2023-05-09T19:39:24.598Z,43.72
2023-05-09T19:41:52.224Z,43.80
2023-05-09T19:44:19.012Z,43.97
2023-05-09T19:46:46.820Z,44.26
2023-05-09T19:49:17.185Z,44.66
2023-05-09T19:51:45.800Z,44.74
2023-05-09T19:54:14.200Z,44.54
2023-05-09T19:56:41.956Z,44.55
2023-05-09T19:59:08.996Z,44.65
2023-05-09T20:01:36.477Z,44.83
2023-05-09T20:04:03.510Z,45.01
2023-05-09T20:06:31.142Z,45.19
2023-05-09T20:08:58.069Z,45.57
2023-05-09T20:11:25.310Z,45.65
2023-05-09T20:13:52.667Z,46.10
2023-05-09T20:16:21.300Z,45.96
2023-05-09T20:18:50.005Z,46.03
2023-05-09T20:21:18.876Z,46.20
2023-05-09T20:23:46.054Z,45.78
2023-05-09T20:26:13.817Z,46.28
2023-05-09T20:28:41.141Z,46.31
2023-05-09T20:31:08.541Z,46.58
2023-05-09T20:33:35.576Z,47.03
2023-05-09T20:36:03.070Z,47.34
2023-05-09T20:38:29.974Z,47.52
2023-05-09T20:40:57.137Z,47.76
2023-05-09T20:43:24.590Z,47.83
2023-05-09T20:45:52.210Z,48.02
2023-05-09T20:48:22.968Z,48.21
2023-05-09T20:50:50.318Z,48.41
2023-05-09T20:53:17.345Z,48.83
2023-05-09T20:55:44.501Z,49.01
2023-05-09T20:58:14.858Z,48.87
2023-05-09T21:00:42.528Z,48.78
2023-05-09T21:03:10.214Z,49.04
2023-05-09T21:05:37.766Z,49.35
2023-05-09T21:08:05.427Z,49.36
2023-05-09T21:10:33.023Z,49.44
2023-05-09T21:13:00.181Z,49.36
2023-05-09T21:15:27.652Z,49.59
2023-05-09T21:17:55.038Z,49.87
2023-05-09T21:20:22.268Z,50.40
2023-05-09T21:22:49.855Z,50.31
2023-05-09T21:25:18.129Z,50.56
2023-05-09T21:27:45.321Z,50.40
2023-05-09T21:30:12.679Z,50.94
2023-05-09T21:32:39.655Z,50.80
2023-05-09T21:35:11.104Z,51.06
2023-05-09T21:37:38.113Z,51.07
2023-05-09T21:40:06.094Z,51.76
2023-05-09T21:42:33.011Z,51.31
2023-05-09T21:45:00.454Z,51.28
2023-05-09T21:47:27.641Z,52.11
2023-05-09T21:49:55.228Z,52.54
2023-05-09T21:52:23.577Z,52.36
2023-05-09T21:54:51.475Z,52.35
2023-05-09T21:57:18.366Z,52.58
2023-05-09T21:59:45.885Z,52.91
2023-05-09T22:02:13.333Z,52.92
2023-05-09T22:04:41.077Z,53.00
2023-05-09T22:07:07.921Z,52.93
2023-05-09T22:09:35.791Z,53.19
2023-05-09T22:12:02.666Z,53.39
2023-05-09T22:14:30.139Z,53.68
2023-05-09T22:16:57.090Z,53.87
2023-05-09T22:19:25.191Z,54.19
2023-05-09T22:21:52.116Z,54.51
2023-05-09T22:24:19.561Z,55.05
2023-05-09T22:26:46.711Z,55.28
2023-05-09T22:29:16.636Z,55.39
2023-05-09T22:31:44.712Z,55.53
2023-05-09T22:34:11.922Z,56.27
2023-05-09T22:36:38.828Z,56.44
2023-05-09T22:39:06.546Z,56.79
2023-05-09T22:41:33.536Z,56.54
2023-05-09T22:44:00.906Z,56.66
2023-05-09T22:46:28.197Z,56.83
2023-05-09T22:48:55.529Z,57.07
2023-05-09T22:51:22.749Z,57.47
2023-05-09T22:53:49.881Z,57.80
2023-05-09T22:56:17.092Z,58.08
2023-05-09T22:58:44.199Z,58.69
2023-05-09T23:01:11.546Z,58.95
2023-05-09T23:03:38.664Z,59.07
2023-05-09T23:06:06.391Z,59.28
2023-05-09T23:08:34.371Z,59.62
2023-05-09T23:11:01.275Z,59.52
2023-05-09T23:13:28.838Z,59.69
2023-05-09T23:15:55.859Z,59.86
2023-05-09T23:18:23.916Z,60.05
2023-05-09T23:20:51.147Z,60.32
2023-05-09T23:23:18.304Z,60.52
2023-05-09T23:25:49.160Z,60.58
2023-05-09T23:28:28.952Z,60.82
2023-05-09T23:30:59.829Z,61.37
2023-05-09T23:33:35.091Z,61.64
2023-05-09T23:36:06.264Z,61.97
2023-05-09T23:38:41.495Z,62.15
2023-05-09T23:41:12.765Z,62.26
2023-05-09T23:43:47.802Z,62.56
2023-05-09T23:46:18.696Z,62.40
2023-05-09T23:48:53.884Z,62.57
2023-05-09T23:51:24.872Z,62.83
2023-05-09T23:54:00.114Z,62.80
2023-05-09T23:56:31.590Z,63.18
2023-05-09T23:59:06.789Z,63.32
